Time;durP1;ratioP1;P1;durP2;ratioP2;P2;SDS_P1;SDS_P2;PMS_P1;PMS_P2;Temp;Humidity;BMP_temperature;BMP_pressure;BME280_temperature;BME280_humidity;BME280_pressure;Samples;Min_cycle;Max_cycle;Signal;HPM_P1;HPM_P2
2022/01/24 00:01:12;;;;;;;47.55;22.23;;;;;;;;;;5169608;28;20080;-38
2022/01/24 00:03:45;;;;;;;53.35;21.90;;;;;;;;;;5157220;28;20057;-37
2022/01/24 00:06:18;;;;;;;50.50;23.63;;;;;;;;;;5149308;28;20733;-37
2022/01/24 00:08:51;;;;;;;52.08;23.65;;;;;;;;;;5159094;28;23152;-37
2022/01/24 00:11:30;;;;;;;51.60;23.27;;;;;;;;;;5180354;28;20056;-37
2022/01/24 00:14:48;;;;;;;47.40;23.13;;;;;;;;;;5174616;28;20505;-37
2022/01/24 00:28:34;;;;;;;48.55;20.10;;;;;;;;;;5166174;28;20058;-39
2022/01/24 00:31:07;;;;;;;53.05;22.67;;;;;;;;;;5173429;28;20042;-37
2022/01/24 00:33:40;;;;;;;50.00;22.80;;;;;;;;;;5156512;28;20521;-37
2022/01/24 00:36:13;;;;;;;52.92;22.83;;;;;;;;;;5169712;28;20058;-37
2022/01/24 00:38:46;;;;;;;47.63;21.15;;;;;;;;;;5185134;28;20553;-37
2022/01/24 00:41:22;;;;;;;50.58;22.00;;;;;;;;;;5175257;28;20069;-37
2022/01/24 00:44:27;;;;;;;51.80;22.25;;;;;;;;;;5181378;28;20065;-37
2022/01/24 00:46:59;;;;;;;49.67;21.67;;;;;;;;;;5175372;28;20046;-38
2022/01/24 00:55:15;;;;;;;48.20;21.08;;;;;;;;;;5174349;28;20539;-38
2022/01/24 00:57:48;;;;;;;47.53;21.03;;;;;;;;;;5165300;28;20517;-38
2022/01/24 01:00:21;;;;;;;46.88;19.95;;;;;;;;;;5150514;28;20041;-38
2022/01/24 01:02:53;;;;;;;46.67;20.97;;;;;;;;;;5177840;28;20171;-37
2022/01/24 01:18:07;;;;;;;41.25;19.95;;;;;;;;;;5183434;28;20512;-38
2022/01/24 01:19:40;;;;;;;43.83;20.40;;;;;;;;;;5165737;28;20050;-37
2022/01/24 01:22:12;;;;;;;43.13;19.00;;;;;;;;;;5173289;28;20532;-37
2022/01/24 01:24:51;;;;;;;41.53;18.73;;;;;;;;;;5174443;28;20053;-38
2022/01/24 01:27:32;;;;;;;42.67;18.75;;;;;;;;;;5147560;28;20482;-37
2022/01/24 01:30:13;;;;;;;44.63;19.77;;;;;;;;;;5155851;28;20709;-37
2022/01/24 01:35:36;;;;;;;43.83;20.17;;;;;;;;;;5132717;28;20045;-38
2022/01/24 01:52:34;;;;;;;44.35;19.63;;;;;;;;;;5154267;28;20046;-38
2022/01/24 01:55:14;;;;;;;42.63;18.38;;;;;;;;;;5148581;28;20052;-37
2022/01/24 01:57:47;;;;;;;41.17;18.67;;;;;;;;;;5141100;28;20053;-38
2022/01/24 02:00:20;;;;;;;40.85;18.20;;;;;;;;;;5141594;28;20288;-38
2022/01/24 02:02:53;;;;;;;40.97;18.67;;;;;;;;;;5134467;28;20049;-37
2022/01/24 02:05:26;;;;;;;38.30;17.63;;;;;;;;;;5133160;28;20508;-37
2022/01/24 02:07:59;;;;;;;42.60;18.45;;;;;;;;;;5126827;28;20489;-38
2022/01/24 02:10:37;;;;;;;40.53;18.45;;;;;;;;;;5111676;28;26785;-38
2022/01/24 02:13:11;;;;;;;41.80;18.90;;;0.10;99.90;;;;;;5132484;28;20053;-39
2022/01/24 02:15:58;;;;;;;39.47;19.92;;;;;;;;;;5135491;28;20052;-38
2022/01/24 02:18:46;;;;;;;47.03;20.80;;;;;;;;;;5133034;28;20049;-36
2022/01/24 02:24:14;;;;;;;38.90;18.15;;;0.00;99.90;;;;;;5179512;22;20089;-83
2022/01/24 02:26:49;;;;;;;43.15;18.80;;;;;;;;;;5182991;28;20045;-84
2022/01/24 02:29:43;;;;;;;46.65;19.90;;;;;;;;;;5200537;28;20043;-84
2022/01/24 02:32:16;;;;;;;42.28;18.80;;;;;;;;;;5181671;28;20044;-85
2022/01/24 02:34:50;;;;;;;41.90;19.67;;;;;;;;;;5178081;28;20048;-83
2022/01/24 02:37:23;;;;;;;43.42;19.35;;;;;;;;;;5189025;28;20712;-83
2022/01/24 02:40:02;;;;;;;43.15;18.40;;;;;;;;;;5164232;28;20496;-83
2022/01/24 02:48:29;;;;;;;40.40;18.77;;;;;;;;;;5168004;28;20082;-84
2022/01/24 02:53:43;;;;;;;45.80;20.40;;;;;;;;;;5190552;28;20059;-83
2022/01/24 02:56:16;;;;;;;40.92;18.88;;;;;;;;;;5194884;28;20040;-85
2022/01/24 02:58:49;;;;;;;44.93;19.43;;;;;;;;;;5186728;28;21299;-83
2022/01/24 03:01:22;;;;;;;42.95;18.85;;;;;;;;;;5187005;28;20467;-84
2022/01/24 03:03:56;;;;;;;45.00;20.30;;;;;;;;;;5149451;28;20056;-83
2022/01/24 03:06:28;;;;;;;44.00;19.70;;;;;;;;;;5188840;28;20045;-83
2022/01/24 03:09:01;;;;;;;48.30;21.47;;;;;;;;;;5165806;28;20041;-83
2022/01/24 03:14:25;;;;;;;45.38;19.67;;;0.00;99.90;;;;;;5183935;28;20055;-84
2022/01/24 03:16:58;;;;;;;43.35;20.80;;;;;;;;;;5164614;28;20862;-83
2022/01/24 03:19:32;;;;;;;46.53;19.45;;;;;;;;;;5182536;28;20052;-82
2022/01/24 03:22:08;;;;;;;40.53;19.30;;;;;;;;;;5189316;28;20124;-84
2022/01/24 03:24:41;;;;;;;45.22;19.98;;;;;;;;;;5181390;28;20040;-83
2022/01/24 03:27:14;;;;;;;34.35;16.73;;;;;;;;;;5189939;28;20056;-83
2022/01/24 03:29:47;;;;;;;43.65;18.98;;;;;;;;;;5200936;28;20048;-83
2022/01/24 03:32:20;;;;;;;38.72;18.33;;;;;;;;;;5187411;28;20071;-83
2022/01/24 03:34:53;;;;;;;45.55;19.52;;;;;;;;;;5197327;28;20850;-83
2022/01/24 03:37:26;;;;;;;40.30;18.07;;;;;;;;;;5207736;28;20055;-83
2022/01/24 03:39:59;;;;;;;46.75;20.85;;;;;;;;;;5183265;28;20056;-85
2022/01/24 03:42:32;;;;;;;40.87;18.13;;;;;;;;;;5202107;28;20075;-83
2022/01/24 03:45:08;;;;;;;39.08;17.58;;;-0.30;99.90;;;;;;5193317;28;20123;-82
2022/01/24 03:47:54;;;;;;;42.28;18.90;;;;;;;;;;5202187;28;20507;-85
2022/01/24 03:50:27;;;;;;;45.08;18.15;;;;;;;;;;5197070;28;20059;-83
2022/01/24 03:53:00;;;;;;;30.75;14.23;;;;;;;;;;5203294;28;20049;-83
2022/01/24 03:55:34;;;;;;;39.63;17.97;;;;;;;;;;5230013;28;20479;-84
2022/01/24 03:58:06;;;;;;;40.17;18.40;;;;;;;;;;5218815;28;20319;-83
2022/01/24 04:00:39;;;;;;;38.83;17.93;;;;;;;;;;5214438;28;20060;-83
2022/01/24 04:03:14;;;;;;;31.55;15.48;;;;;;;;;;5215144;28;20049;-84
2022/01/24 04:05:47;;;;;;;39.95;17.65;;;;;;;;;;5204579;28;20052;-84
2022/01/24 04:08:20;;;;;;;37.28;16.13;;;;;;;;;;5201989;28;20047;-83
2022/01/24 04:10:56;;;;;;;43.13;19.35;;;;;;;;;;5195598;28;20045;-82
2022/01/24 04:13:35;;;;;;;38.25;17.52;;;;;;;;;;5187476;28;20052;-83
2022/01/24 04:19:13;;;;;;;34.40;17.02;;;;;;;;;;5201246;28;20044;-83
2022/01/24 04:21:48;;;;;;;38.60;17.48;;;;;;;;;;5198699;28;20057;-83
2022/01/24 04:24:23;;;;;;;37.50;16.00;;;;;;;;;;5216486;28;20055;-84
2022/01/24 04:26:56;;;;;;;36.05;15.82;;;;;;;;;;5207042;28;20052;-83
2022/01/24 04:29:29;;;;;;;34.57;15.73;;;;;;;;;;5196174;28;20427;-83
2022/01/24 04:32:03;;;;;;;30.98;15.68;;;;;;;;;;5198073;28;20968;-83
2022/01/24 04:34:36;;;;;;;35.00;16.60;;;;;;;;;;5190579;28;20139;-84
2022/01/24 04:37:08;;;;;;;33.20;16.07;;;;;;;;;;5206783;28;20217;-84
2022/01/24 04:39:43;;;;;;;31.13;15.17;;;;;;;;;;5179081;28;20053;-83
2022/01/24 04:42:25;;;;;;;33.47;16.27;;;;;;;;;;5201255;28;20044;-84
2022/01/24 04:50:28;;;;;;;33.60;15.48;;;;;;;;;;5200994;28;20566;-83
2022/01/24 04:51:07;;;;;;;34.65;15.52;;;;;;;;;;5191038;28;20048;-84
2022/01/24 04:56:12;;;;;;;34.87;15.77;;;;;;;;;;5194514;28;20056;-84
2022/01/24 04:59:07;;;;;;;37.25;16.67;;;;;;;;;;5165382;28;20295;-83
2022/01/24 05:01:40;;;;;;;37.17;15.82;;;;;;;;;;5193877;28;20071;-84
2022/01/24 05:04:13;;;;;;;35.97;15.52;;;;;;;;;;5201563;28;20059;-83
2022/01/24 05:06:46;;;;;;;;;;;-0.80;99.90;;;;;;5169586;28;20048;-84
2022/01/24 05:09:20;;;;;;;29.95;13.80;;;;;;;;;;5185772;28;19947;-82
2022/01/24 05:12:05;;;;;;;32.22;15.07;;;;;;;;;;5183067;28;20044;-83
2022/01/24 05:23:33;;;;;;;34.33;15.93;;;;;;;;;;5226624;28;20051;-82
2022/01/24 05:26:07;;;;;;;32.58;14.88;;;-0.90;99.90;;;;;;5220796;28;20385;-85
2022/01/24 05:28:41;;;;;;;31.75;15.25;;;;;;;;;;5215840;28;20048;-83
2022/01/24 05:31:17;;;;;;;29.48;14.05;;;;;;;;;;5182458;28;20052;-82
2022/01/24 05:33:50;;;;;;;31.42;15.02;;;;;;;;;;5184947;28;20056;-83
2022/01/24 05:36:23;;;;;;;35.35;16.23;;;;;;;;;;5179028;28;20053;-82
2022/01/24 05:38:57;;;;;;;35.97;15.93;;;;;;;;;;5212725;28;20056;-84
2022/01/24 05:41:30;;;;;;;38.13;17.42;;;;;;;;;;5186137;28;21679;-83
2022/01/24 05:44:03;;;;;;;35.80;16.13;;;;;;;;;;5215082;28;20044;-83
2022/01/24 05:46:36;;;;;;;37.38;17.55;;;;;;;;;;5160784;28;20068;-83
2022/01/24 05:49:09;;;;;;;37.28;16.55;;;;;;;;;;5192424;28;20049;-83
2022/01/24 05:51:42;;;;;;;35.50;16.53;;;;;;;;;;5160889;28;20049;-83
2022/01/24 05:54:15;;;;;;;34.15;16.20;;;;;;;;;;5178904;28;20082;-82
2022/01/24 05:56:47;;;;;;;39.57;16.80;;;;;;;;;;5163833;28;20400;-84
2022/01/24 05:59:20;;;;;;;40.85;17.30;;;;;;;;;;5185032;28;20052;-84
2022/01/24 06:01:54;;;;;;;43.53;17.77;;;;;;;;;;5148590;28;22182;-84
2022/01/24 06:04:27;;;;;;;52.67;19.10;;;;;;;;;;5147912;28;20044;-83
2022/01/24 06:07:00;;;;;;;53.20;21.17;;;-0.60;99.90;;;;;;5183451;28;20052;-83
2022/01/24 06:09:34;;;;;;;56.17;21.15;;;;;;;;;;5182165;28;20503;-85
2022/01/24 06:12:10;;;;;;;56.67;19.27;;;;;;;;;;5156904;28;20053;-84
2022/01/24 06:14:52;;;;;;;53.85;20.65;;;;;;;;;;5191419;28;20558;-85
2022/01/24 06:17:25;;;;;;;54.05;19.38;;;;;;;;;;5203197;28;20048;-85
2022/01/24 06:19:58;;;;;;;51.50;19.90;;;;;;;;;;5175851;28;20057;-85
2022/01/24 06:22:41;;;;;;;54.67;19.88;;;-0.70;99.90;;;;;;5182335;28;20079;-86
2022/01/24 06:25:20;;;;;;;56.08;21.30;;;;;;;;;;5194869;28;20072;-83
2022/01/24 06:27:53;;;;;;;43.83;18.58;;;;;;;;;;5198071;28;20053;-85
2022/01/24 06:30:29;;;;;;;49.10;19.67;;;;;;;;;;5217643;28;20594;-86
2022/01/24 06:33:02;;;;;;;46.80;18.63;;;;;;;;;;5179555;28;20048;-85
2022/01/24 06:35:41;;;;;;;45.38;17.65;;;;;;;;;;5203492;28;20052;-83
2022/01/24 06:38:14;;;;;;;41.15;16.92;;;;;;;;;;5214374;28;20447;-83
2022/01/24 06:40:47;;;;;;;38.00;15.60;;;;;;;;;;5216038;28;20051;-84
2022/01/24 06:43:20;;;;;;;39.03;16.52;;;;;;;;;;5220174;28;20052;-84
2022/01/24 06:45:53;;;;;;;39.97;16.42;;;;;;;;;;5192878;28;20048;-85
2022/01/24 06:48:26;;;;;;;48.78;16.35;;;;;;;;;;5219609;28;20063;-84
2022/01/24 06:50:59;;;;;;;37.97;15.63;;;;;;;;;;5218268;28;20040;-84
2022/01/24 06:53:32;;;;;;;45.10;17.20;;;;;;;;;;5183861;28;20520;-84
2022/01/24 06:56:06;;;;;;;45.57;16.93;;;-1.00;99.90;;;;;;5208607;28;20057;-84
2022/01/24 06:58:39;;;;;;;42.78;16.23;;;;;;;;;;5207727;28;20052;-85
2022/01/24 07:01:12;;;;;;;35.78;14.13;;;;;;;;;;5204261;28;20386;-85
2022/01/24 07:03:45;;;;;;;45.85;17.88;;;;;;;;;;5201104;28;20091;-84
2022/01/24 07:06:18;;;;;;;54.45;20.70;;;;;;;;;;5197599;28;20056;-84
2022/01/24 07:08:51;;;;;;;47.58;19.08;;;;;;;;;;5228750;28;20146;-85
2022/01/24 07:11:24;;;;;;;42.65;17.75;;;;;;;;;;5232217;28;20630;-84
2022/01/24 07:13:57;;;;;;;51.23;20.13;;;;;;;;;;5232483;28;20040;-86
2022/01/24 07:16:47;;;;;;;37.33;15.45;;;;;;;;;;5229449;28;20306;-85
2022/01/24 07:19:28;;;;;;;44.42;18.73;;;-0.90;99.90;;;;;;5228624;28;20055;-84
2022/01/24 07:22:04;;;;;;;50.55;20.20;;;-1.10;99.90;;;;;;5204040;28;20067;-84
2022/01/24 07:24:37;;;;;;;51.47;20.15;;;;;;;;;;5227141;28;20054;-85
2022/01/24 07:27:10;;;;;;;50.22;19.40;;;;;;;;;;5209436;28;20056;-84
2022/01/24 07:29:43;;;;;;;50.53;21.23;;;;;;;;;;5221843;28;20044;-84
2022/01/24 07:32:16;;;;;;;55.20;21.03;;;;;;;;;;5223063;28;20302;-84
2022/01/24 07:34:50;;;;;;;48.03;20.20;;;;;;;;;;5206711;28;20055;-84
2022/01/24 07:37:24;;;;;;;48.13;19.48;;;;;;;;;;5211727;28;20079;-84
2022/01/24 07:39:57;;;;;;;45.55;19.98;;;;;;;;;;5208637;28;20044;-84
2022/01/24 07:42:52;;;;;;;44.50;20.50;;;;;;;;;;5219874;28;20049;-83
2022/01/24 07:45:25;;;;;;;52.67;20.73;;;-0.50;99.90;;;;;;5199421;28;20269;-84
2022/01/24 07:48:03;;;;;;;44.08;20.02;;;;;;;;;;5202394;28;20049;-85
2022/01/24 07:50:40;;;;;;;55.50;23.05;;;0.30;99.90;;;;;;5204718;28;20047;-85
2022/01/24 07:53:14;;;;;;;51.67;21.73;;;;;;;;;;5224254;28;20515;-84
2022/01/24 07:56:06;;;;;;;39.00;17.15;;;;;;;;;;5225548;28;20095;-84
2022/01/24 07:58:42;;;;;;;48.30;20.93;;;;;;;;;;5224557;28;20059;-83
2022/01/24 08:01:15;;;;;;;53.38;21.92;;;;;;;;;;5220703;28;20295;-84
2022/01/24 08:03:48;;;;;;;48.92;22.25;;;;;;;;;;5210321;28;20826;-84
2022/01/24 08:06:22;;;;;;;;;;;-0.20;99.90;;;;;;5225423;28;20045;-84
2022/01/24 08:08:55;;;;;;;51.35;21.85;;;;;;;;;;5224825;28;19921;-85
2022/01/24 08:11:28;;;;;;;55.08;23.52;;;;;;;;;;5225424;28;20045;-85
2022/01/24 08:14:01;;;;;;;54.37;21.67;;;;;;;;;;5213751;28;20093;-85
2022/01/24 08:16:37;;;;;;;54.72;22.35;;;;;;;;;;5228925;28;20299;-85
2022/01/24 08:19:09;;;;;;;54.50;22.70;;;;;;;;;;5217230;28;20040;-84
2022/01/24 08:21:43;;;;;;;52.93;22.77;;;;;;;;;;5226621;28;20049;-85
2022/01/24 08:24:15;;;;;;;;;;;1.00;99.90;;;;;;5215531;28;20309;-84
2022/01/24 08:26:48;;;;;;;53.28;22.77;;;;;;;;;;5208327;28;20319;-83
2022/01/24 08:29:21;;;;;;;52.23;23.27;;;;;;;;;;5233818;28;20049;-83
2022/01/24 08:31:54;;;;;;;53.07;22.47;;;;;;;;;;5199984;28;20306;-83
2022/01/24 08:34:27;;;;;;;51.70;22.23;;;;;;;;;;5207158;28;20047;-83
2022/01/24 08:37:00;;;;;;;56.47;23.63;;;;;;;;;;5225154;28;20045;-84
2022/01/24 08:39:33;;;;;;;51.50;21.83;;;;;;;;;;5230920;28;20040;-83
2022/01/24 08:42:17;;;;;;;50.58;23.80;;;;;;;;;;5217492;28;20049;-83
2022/01/24 08:52:13;;;;;;;58.40;21.75;;;;;;;;;;5185886;28;20543;-83
2022/01/24 08:54:48;;;;;;;64.68;23.55;;;;;;;;;;5203025;28;20045;-83
2022/01/24 08:57:25;;;;;;;63.33;23.35;;;;;;;;;;5219941;28;20056;-83
2022/01/24 08:59:58;;;;;;;63.05;23.33;;;;;;;;;;5222844;28;20040;-82
2022/01/24 09:02:32;;;;;;;80.45;24.02;;;;;;;;;;5240252;28;20055;-83
2022/01/24 09:05:06;;;;;;;58.72;23.38;;;;;;;;;;5219506;28;20048;-83
2022/01/24 09:07:39;;;;;;;69.45;25.15;;;;;;;;;;5214378;28;20045;-84
2022/01/24 09:10:12;;;;;;;71.37;24.80;;;;;;;;;;5223800;28;20056;-84
2022/01/24 09:12:45;;;;;;;75.80;24.00;;;;;;;;;;5241465;28;20053;-84
2022/01/24 09:15:18;;;;;;;60.70;22.73;;;;;;;;;;5223580;28;20512;-83
2022/01/24 09:17:51;;;;;;;60.90;22.70;;;;;;;;;;5235075;28;20698;-83
2022/01/24 09:20:24;;;;;;;80.07;24.83;;;;;;;;;;5242097;28;20291;-84
2022/01/24 09:22:57;;;;;;;60.22;23.70;;;;;;;;;;5202728;28;20052;-83
2022/01/24 09:25:30;;;;;;;61.43;21.87;;;;;;;;;;5208978;28;20060;-82
2022/01/24 09:28:03;;;;;;;68.70;21.97;;;;;;;;;;5243579;28;20313;-82
2022/01/24 09:30:36;;;;;;;60.97;22.13;;;;;;;;;;5236625;28;20040;-84
2022/01/24 09:33:13;;;;;;;70.55;24.25;;;;;;;;;;5224421;28;20689;-83
2022/01/24 09:35:46;;;;;;;73.93;24.60;;;;;;;;;;5239197;28;20045;-84
2022/01/24 09:38:20;;;;;;;96.78;25.88;;;;;;;;;;5216228;28;20036;-82
2022/01/24 09:40:53;;;;;;;70.47;24.65;;;;;;;;;;5223020;28;20048;-84
2022/01/24 09:43:26;;;;;;;67.87;24.70;;;;;;;;;;5239934;28;20416;-83
2022/01/24 09:46:00;;;;;;;77.50;24.48;;;0.10;99.90;;;;;;5235642;28;20412;-82
2022/01/24 09:48:33;;;;;;;68.05;24.40;;;;;;;;;;5242524;28;20052;-82
2022/01/24 09:51:06;;;;;;;64.30;23.23;;;1.10;99.90;;;;;;5229161;28;20052;-83
2022/01/24 09:53:40;;;;;;;92.93;27.90;;;;;;;;;;5234039;28;20707;-83
2022/01/24 09:56:12;;;;;;;;;;;1.10;99.90;;;;;;4536029;28;10000045;-84
2022/01/24 09:58:45;;;;;;;106.47;28.33;;;;;;;;;;5200733;28;20814;-83
2022/01/24 10:01:19;;;;;;;68.70;25.48;;;;;;;;;;5237180;28;20048;-83
2022/01/24 10:04:08;;;;;;;80.63;26.70;;;;;;;;;;5241530;28;20057;-83
2022/01/24 10:06:57;;;;;;;69.70;23.67;;;;;;;;;;5205806;28;20534;-83
2022/01/24 10:09:37;;;;;;;62.65;23.27;;;0.80;99.90;;;;;;5222295;28;20063;-82
2022/01/24 10:16:24;;;;;;;81.03;25.25;;;;;;;;;;5236149;28;20051;-82
2022/01/24 10:18:05;;;;;;;75.32;24.90;;;0.80;99.90;;;;;;5232147;28;20052;-84
2022/01/24 10:20:42;;;;;;;74.68;24.17;;;;;;;;;;5233898;28;20682;-83
2022/01/24 10:23:26;;;;;;;70.43;23.90;;;0.90;99.90;;;;;;5229836;28;20052;-82
2022/01/24 10:26:05;;;;;;;64.85;22.70;;;;;;;;;;5236665;28;20419;-82
2022/01/24 10:28:43;;;;;;;65.85;23.30;;;1.30;99.90;;;;;;5235115;28;20040;-84
2022/01/24 10:31:28;;;;;;;66.70;25.25;;;0.60;99.90;;;;;;5213433;28;20063;-83
2022/01/24 10:34:16;;;;;;;61.72;23.00;;;1.00;99.90;;;;;;5179259;28;20056;-81
2022/01/24 10:36:54;;;;;;;59.20;21.98;;;0.80;99.90;;;;;;5206940;28;20044;-83
2022/01/24 10:45:12;;;;;;;66.47;24.25;;;1.60;99.90;;;;;;5232470;28;20048;-82
2022/01/24 10:47:49;;;;;;;62.15;23.23;;;1.30;99.90;;;;;;5228859;28;20052;-83
2022/01/24 10:50:28;;;;;;;59.47;22.95;;;1.70;99.90;;;;;;5232932;28;20538;-81
2022/01/24 10:53:13;;;;;;;60.40;23.17;;;1.20;99.90;;;;;;5229962;28;20425;-83
2022/01/24 10:55:51;;;;;;;64.15;24.25;;;;;;;;;;5213041;28;20083;-83
2022/01/24 10:58:34;;;;;;;79.77;27.90;;;1.40;99.90;;;;;;5208564;28;20172;-82
2022/01/24 11:01:06;;;;;;;60.70;24.73;;;;;;;;;;5233656;28;20313;-82
2022/01/24 11:03:40;;;;;;;79.70;28.38;;;;;;;;;;5232846;28;20078;-82
2022/01/24 11:06:30;;;;;;;54.88;24.30;;;2.20;99.90;;;;;;5207376;28;20052;-82
2022/01/24 11:09:33;;;;;;;58.67;22.77;;;0.80;99.90;;;;;;5217357;28;20598;-82
2022/01/24 11:12:15;;;;;;;52.88;22.83;;;1.40;99.90;;;;;;5205806;28;20420;-83
2022/01/24 11:14:48;;;;;;;42.65;19.88;;;;;;;;;;5228010;28;20041;-83
2022/01/24 11:17:25;;;;;;;48.97;23.15;;;;;;;;;;5206702;28;20059;-83
2022/01/24 11:20:02;;;;;;;48.03;21.38;;;;;;;;;;5220392;28;20048;-83
2022/01/24 11:22:40;;;;;;;49.78;22.50;;;;;;;;;;5195143;28;20422;-83
2022/01/24 11:25:14;;;;;;;50.15;22.10;;;2.10;99.90;;;;;;5227825;28;20067;-82
2022/01/24 11:27:48;;;;;;;44.60;20.38;;;;;;;;;;5227357;28;20036;-81
2022/01/24 11:30:25;;;;;;;44.90;20.40;;;2.10;99.90;;;;;;5226968;28;20044;-82
2022/01/24 11:32:59;;;;;;;48.25;19.90;;;;;;;;;;5230947;28;20051;-82
2022/01/24 11:35:32;;;;;;;49.33;21.00;;;;;;;;;;5233419;28;20032;-82
2022/01/24 11:38:31;;;;;;;41.53;20.33;;;2.30;99.90;;;;;;5230218;28;20411;-82
2022/01/24 11:41:21;;;;;;;40.10;19.25;;;2.60;99.90;;;;;;5218676;28;20309;-81
2022/01/24 11:43:59;;;;;;;40.38;20.13;;;2.70;99.90;;;;;;5231228;28;20063;-81
2022/01/24 11:46:52;;;;;;;38.65;18.75;;;2.60;99.90;;;;;;5209299;28;20095;-81
2022/01/24 11:49:29;;;;;;;41.25;19.25;;;2.60;99.90;;;;;;5211023;28;20052;-81
2022/01/24 11:52:11;;;;;;;37.20;17.33;;;2.60;99.90;;;;;;5208005;28;20041;-80
2022/01/24 11:54:46;;;;;;;38.05;17.55;;;;;;;;;;5222016;28;20040;-81
2022/01/24 11:57:37;;;;;;;31.90;15.40;;;2.60;99.90;;;;;;5188888;28;20048;-81
2022/01/24 12:00:09;;;;;;;37.20;17.42;;;;;;;;;;5219131;28;20044;-80
2022/01/24 12:03:23;;;;;;;31.77;16.23;;;2.60;99.90;;;;;;5180190;28;20045;-82
2022/01/24 12:05:58;;;;;;;32.13;16.55;;;2.60;99.90;;;;;;5207960;28;20056;-80
2022/01/24 12:09:02;;;;;;;33.50;16.50;;;2.70;99.90;;;;;;5201993;28;20048;-80
2022/01/24 12:11:37;;;;;;;33.08;16.40;;;;;;;;;;5216288;28;20051;-81
2022/01/24 12:14:37;;;;;;;31.17;15.50;;;2.60;99.90;;;;;;5212802;28;20044;-81
2022/01/24 12:17:11;;;;;;;35.53;16.73;;;;;;;;;;5217440;28;20507;-81
2022/01/24 12:19:44;;;;;;;34.90;17.20;;;;;;;;;;5202062;28;20056;-81
2022/01/24 12:22:37;;;;;;;34.67;16.83;;;2.50;99.90;;;;;;5208712;28;20055;-82
2022/01/24 12:25:10;;;;;;;30.47;16.27;;;;;;;;;;5203303;28;20156;-80
2022/01/24 12:28:20;;;;;;;35.53;17.00;;;2.50;99.90;;;;;;5217159;28;20436;-81
2022/01/24 12:31:10;;;;;;;34.20;16.75;;;2.60;99.90;;;;;;5187156;28;20389;-80
2022/01/24 12:33:55;;;;;;;32.65;16.70;;;2.60;99.90;;;;;;5214685;28;20044;-80
2022/01/24 12:36:47;;;;;;;30.13;14.68;;;;;;;;;;5195773;28;20044;-80
2022/01/24 12:39:20;;;;;;;26.90;14.40;;;;;;;;;;5220137;28;20036;-80
2022/01/24 12:42:00;;;;;;;28.45;14.95;;;2.70;99.90;;;;;;5201188;28;20583;-80
2022/01/24 12:47:18;;;;;;;33.97;16.58;;;2.40;99.90;;;;;;5211615;28;20049;-81
2022/01/24 12:49:51;;;;;;;32.17;15.68;;;;;;;;;;5200020;28;21691;-81
2022/01/24 12:52:27;;;;;;;29.88;15.32;;;2.70;99.90;;;;;;5178253;28;20480;-80
2022/01/24 12:55:09;;;;;;;31.75;15.63;;;2.60;99.90;;;;;;5205417;28;20051;-80
2022/01/24 12:57:42;;;;;;;30.80;16.38;;;2.70;99.90;;;;;;5184707;28;20060;-80
2022/01/24 13:00:17;;;;;;;;;;;2.60;99.90;;;;;;5166523;28;20633;-81
2022/01/24 13:02:50;;;;;;;33.88;16.05;;;;;;;;;;5156824;28;19931;-79
2022/01/24 13:05:28;;;;;;;32.50;16.23;;;;;;;;;;4967873;28;10000939;-80
2022/01/24 13:08:01;;;;;;;32.22;16.00;;;;;;;;;;4836531;28;9999626;-79
2022/01/24 13:10:34;;;;;;;35.20;16.87;;;;;;;;;;5244617;28;20040;-80
2022/01/24 13:13:11;;;;;;;34.05;16.77;;;2.50;99.90;;;;;;5211397;28;20295;-80
2022/01/24 13:21:28;;;;;;;36.17;17.48;;;;;;;;;;5215919;28;20048;-79
2022/01/24 13:24:01;;;;;;;;;;;2.60;99.90;;;;;;5192188;28;20052;-80
2022/01/24 13:26:34;;;;;;;34.80;15.80;;;;;;;;;;5207767;28;20577;-80
2022/01/24 13:29:08;;;;;;;43.47;19.90;;;;;;;;;;5174509;28;20044;-80
2022/01/24 13:31:41;;;;;;;36.55;18.33;;;;;;;;;;5165963;28;20047;-80
2022/01/24 13:34:14;;;;;;;40.03;18.42;;;;;;;;;;5150331;28;20036;-80
2022/01/24 13:36:47;;;;;;;42.97;20.02;;;;;;;;;;5186036;28;20064;-81
2022/01/24 13:39:20;;;;;;;38.67;18.90;;;;;;;;;;5223398;28;20055;-80
2022/01/24 13:41:53;;;;;;;38.63;19.73;;;;;;;;;;5200790;28;20295;-80
2022/01/24 13:44:27;;;;;;;40.15;19.98;;;;;;;;;;5185930;28;20056;-80
2022/01/24 13:47:08;;;;;;;39.53;19.35;;;2.40;99.90;;;;;;5187695;28;20397;-79
2022/01/24 13:49:44;;;;;;;36.53;18.52;;;2.40;99.90;;;;;;5148288;28;20531;-80
2022/01/24 13:52:18;;;;;;;38.22;19.60;;;;;;;;;;5187970;28;20135;-79
2022/01/24 13:54:51;;;;;;;39.45;20.15;;;;;;;;;;5188978;28;20049;-80
2022/01/24 13:57:26;;;;;;;;;;;2.40;99.90;;;;;;5189136;28;20547;-79
2022/01/24 14:00:08;;;;;;;37.27;18.93;;;3.20;99.90;;;;;;5199958;28;26430;-80
2022/01/24 14:02:43;;;;;;;38.92;19.35;;;;;;;;;;5199760;28;20072;-81
2022/01/24 14:05:17;;;;;;;38.78;19.27;;;;;;;;;;5196544;28;21021;-80
2022/01/24 14:07:50;;;;;;;44.47;21.08;;;;;;;;;;5182966;28;20056;-80
2022/01/24 14:10:24;;;;;;;42.55;19.90;;;;;;;;;;5189720;28;20036;-79
2022/01/24 14:12:58;;;;;;;;;;;2.40;99.90;;;;;;5189267;28;20049;-79
2022/01/24 14:18:29;;;;;;;42.72;20.08;;;2.50;99.90;;;;;;5193394;28;20052;-80
2022/01/24 14:21:10;;;;;;;41.67;20.00;;;2.50;99.90;;;;;;5172511;28;20052;-80
2022/01/24 14:23:50;;;;;;;38.38;20.30;;;2.50;99.90;;;;;;5200343;28;20048;-80
2022/01/24 14:26:30;;;;;;;42.40;20.20;;;2.60;99.90;;;;;;5209453;28;20045;-80
2022/01/24 14:29:14;;;;;;;41.30;19.25;;;2.50;99.90;;;;;;5215800;28;20622;-81
2022/01/24 14:31:52;;;;;;;38.65;19.88;;;;;;;;;;5209645;28;20055;-81
2022/01/24 14:34:29;;;;;;;41.25;19.17;;;2.60;99.90;;;;;;5177001;28;21063;-79
2022/01/24 14:37:05;;;;;;;38.40;19.88;;;;;;;;;;5160195;28;20043;-78
2022/01/24 14:39:47;;;;;;;38.33;19.45;;;2.60;99.90;;;;;;5212049;28;20044;-82
2022/01/24 14:42:34;;;;;;;42.03;20.38;;;;;;;;;;5143450;28;20060;-79
2022/01/24 14:45:07;;;;;;;39.10;21.48;;;;;;;;;;5171048;28;20147;-80
2022/01/24 14:47:40;;;;;;;47.53;20.17;;;;;;;;;;5177018;28;20052;-80
2022/01/24 14:50:13;;;;;;;41.13;20.67;;;;;;;;;;5202436;28;20059;-80
2022/01/24 14:52:52;;;;;;;48.03;21.77;;;;;;;;;;5198901;28;20893;-81
2022/01/24 14:55:26;;;;;;;44.27;22.60;;;;;;;;;;5193499;28;20048;-80
2022/01/24 14:58:01;;;;;;;46.95;21.83;;;;;;;;;;5171591;28;20056;-80
2022/01/24 15:00:34;;;;;;;53.03;22.90;;;;;;;;;;5206366;28;21092;-80
2022/01/24 15:03:07;;;;;;;50.33;22.13;;;;;;;;;;5201143;28;20041;-80
2022/01/24 15:05:40;;;;;;;46.00;22.08;;;;;;;;;;5184392;28;20056;-80
2022/01/24 15:08:13;;;;;;;50.65;22.75;;;;;;;;;;5175841;28;20045;-80
2022/01/24 15:10:46;;;;;;;45.72;21.40;;;;;;;;;;5209999;28;20650;-79
2022/01/24 15:13:23;;;;;;;40.77;20.33;;;;;;;;;;5191340;28;20499;-80
2022/01/24 15:16:17;;;;;;;46.33;21.33;;;;;;;;;;5200824;28;20052;-79
2022/01/24 15:25:18;;;;;;;40.33;19.92;;;;;;;;;;5166075;28;20049;-80
2022/01/24 15:27:27;;;;;;;49.17;22.80;;;;;;;;;;5177239;28;20878;-81
2022/01/24 15:30:00;;;;;;;53.03;24.23;;;;;;;;;;5186433;28;21215;-79
2022/01/24 15:32:45;;;;;;;51.45;23.48;;;;;;;;;;5186039;28;20051;-79
2022/01/24 15:35:19;;;;;;;51.83;24.55;;;;;;;;;;5180908;28;20041;-80
2022/01/24 15:37:52;;;;;;;44.97;20.33;;;;;;;;;;5155179;28;20947;-80
2022/01/24 15:40:25;;;;;;;56.50;25.25;;;;;;;;;;5177537;28;20049;-80
2022/01/24 15:48:56;;;;;;;58.85;24.70;;;;;;;;;;5169736;28;20587;-80
2022/01/24 15:51:28;;;;;;;56.70;24.75;;;;;;;;;;5186058;28;20045;-80
2022/01/24 15:54:03;;;;;;;51.30;23.77;;;;;;;;;;5187189;28;20052;-80
2022/01/24 15:59:09;;;;;;;51.22;23.10;;;;;;;;;;5181162;28;21033;-79
2022/01/24 16:01:42;;;;;;;56.90;25.02;;;;;;;;;;5203544;28;20048;-81
2022/01/24 16:04:15;;;;;;;57.92;26.35;;;;;;;;;;5197238;28;20067;-80
2022/01/24 16:06:53;;;;;;;58.40;25.67;;;;;;;;;;5217783;28;20207;-79
2022/01/24 16:09:26;;;;;;;57.50;24.95;;;;;;;;;;5205156;28;20595;-79
2022/01/24 16:11:59;;;;;;;52.20;23.63;;;;;;;;;;5191788;28;20044;-81
2022/01/24 16:14:32;;;;;;;58.80;26.40;;;;;;;;;;5217270;28;20037;-79
2022/01/24 16:17:05;;;;;;;58.77;24.10;;;;;;;;;;5194349;28;20048;-79
2022/01/24 16:19:41;;;;;;;58.35;24.58;;;;;;;;;;5186853;28;20040;-80
2022/01/24 16:22:27;;;;;;;60.75;26.00;;;;;;;;;;5167929;28;20582;-80
2022/01/24 16:25:33;;;;;;;60.97;25.63;;;;;;;;;;5167895;28;20051;-80
2022/01/24 16:28:23;;;;;;;63.07;26.13;;;2.00;99.90;;;;;;5189552;28;21216;-79
2022/01/24 16:31:03;;;;;;;62.00;27.10;;;2.00;99.90;;;;;;5202531;28;20044;-79
2022/01/24 16:33:38;;;;;;;56.85;25.83;;;;;;;;;;5196797;28;20049;-80
2022/01/24 16:36:13;;;;;;;62.50;26.63;;;2.00;99.90;;;;;;4833113;28;10000169;-78
2022/01/24 16:38:47;;;;;;;69.78;28.02;;;;;;;;;;5201914;28;20049;-79
2022/01/24 16:41:27;;;;;;;63.45;27.40;;;;;;;;;;5197750;28;20118;-79
2022/01/24 16:49:25;;;;;;;67.30;27.70;;;;;;;;;;5167872;28;21113;-80
2022/01/24 16:51:58;;;;;;;59.10;26.57;;;;;;;;;;5188781;28;20497;-79
2022/01/24 16:54:32;;;;;;;65.40;26.55;;;;;;;;;;5185953;28;20060;-80